Time;durP1;ratioP1;P1;durP2;ratioP2;P2;SDS_P1;SDS_P2;PMS_P1;PMS_P2;Temp;Humidity;BMP_temperature;BMP_pressure;BME280_temperature;BME280_humidity;BME280_pressure;Samples;Min_cycle;Max_cycle;Signal;HPM_P1;HPM_P2
2022/09/28 00:00:16;;;;;;;12.48;5.85;;;;;;;;;;5040701;28;20046;-90
2022/09/28 00:02:42;;;;;;;10.80;6.18;;;;;;;;;;5026577;28;20046;-91
2022/09/28 00:05:11;;;;;;;9.82;5.80;;;;;;;;;;5026591;28;20053;-91
2022/09/28 00:07:38;;;;;;;11.50;5.90;;;;;;;;;;5043728;28;20049;-91
2022/09/28 00:10:04;;;;;;;9.80;5.88;;;;;;;;;;5033576;28;20037;-90
2022/09/28 00:12:30;;;;;;;9.55;6.00;;;;;;;;;;5033185;28;20069;-91
2022/09/28 00:14:57;;;;;;;11.85;6.00;;;;;;;;;;5049127;28;20058;-91
2022/09/28 00:17:25;;;;;;;9.27;6.05;;;;;;;;;;5026462;28;20041;-90
2022/09/28 00:19:51;;;;;;;9.90;5.63;;;;;;;;;;5026391;28;20415;-92
2022/09/28 00:22:18;;;;;;;11.05;5.90;;;;;;;;;;5061002;28;20060;-91
2022/09/28 00:24:44;;;;;;;10.18;6.22;;;;;;;;;;5053093;28;20042;-91
2022/09/28 00:27:11;;;;;;;12.73;5.82;;;;;;;;;;5027723;28;20483;-91
2022/09/28 00:29:37;;;;;;;10.00;6.93;;;;;;;;;;5011260;28;20102;-90
2022/09/28 00:32:05;;;;;;;13.35;7.50;;;;;;;;;;5026805;28;20042;-90
2022/09/28 00:34:34;;;;;;;10.10;6.88;;;;;;;;;;5020568;28;20101;-90
2022/09/28 00:37:02;;;;;;;12.27;7.40;;;;;;;;;;5027874;28;20046;-90
2022/09/28 00:39:30;;;;;;;16.55;8.32;;;;;;;;;;5056042;28;20041;-90
2022/09/28 00:41:57;;;;;;;10.63;7.07;;;;;;;;;;5018577;28;20062;-90
2022/09/28 00:44:26;;;;;;;12.38;7.13;;;;;;;;;;5040813;28;20053;-91
2022/09/28 00:46:54;;;;;;;9.40;6.28;;;;;;;;;;5024076;28;20042;-90
2022/09/28 00:49:23;;;;;;;10.20;6.40;;;;;;;;;;5021582;28;20092;-90
2022/09/28 00:51:49;;;;;;;11.15;6.45;;;;;;;;;;5019870;28;20042;-90
2022/09/28 00:54:15;;;;;;;10.43;6.78;;;;;;;;;;5014189;28;20120;-89
2022/09/28 00:56:44;;;;;;;13.35;6.95;;;;;;;;;;5014220;28;20599;-89
2022/09/28 00:59:10;;;;;;;13.45;6.55;;;;;;;;;;5016734;28;20068;-92
2022/09/28 01:01:36;;;;;;;10.75;6.50;;;;;;;;;;5020108;28;20496;-90
2022/09/28 01:04:03;;;;;;;11.05;6.38;;;;;;;;;;5021509;28;20042;-89
2022/09/28 01:06:32;;;;;;;11.48;6.68;;;;;;;;;;5053264;28;20050;-90
2022/09/28 01:08:59;;;;;;;11.13;6.75;;;;;;;;;;5018620;28;20058;-89
2022/09/28 01:11:26;;;;;;;9.93;6.38;;;;;;;;;;5009276;28;20097;-89
2022/09/28 01:13:53;;;;;;;9.38;6.75;;;;;;;;;;5016583;28;20041;-90
2022/09/28 01:16:36;;;;;;;8.63;6.35;;;;;;;;;;5017781;28;20041;-90
2022/09/28 01:19:08;;;;;;;11.38;6.00;;;;;;;;;;5016619;28;20085;-89
2022/09/28 01:21:50;;;;;;;9.25;6.18;;;;;;;;;;5012483;28;20056;-90
2022/09/28 01:24:51;;;;;;;9.93;6.97;;;;;;;;;;5014453;28;20042;-89
2022/09/28 01:27:17;;;;;;;13.00;6.93;;;;;;;;;;4967295;28;20043;-89
2022/09/28 01:29:52;;;;;;;11.80;6.65;;;;;;;;;;4949035;28;20051;-90
2022/09/28 01:32:18;;;;;;;9.73;6.65;;;;;;;;;;4989552;28;20094;-89
2022/09/28 01:34:56;;;;;;;11.02;7.18;;;;;;;;;;4975137;28;20050;-90
2022/09/28 01:37:26;;;;;;;10.15;7.07;;;;;;;;;;4974465;28;20051;-91
2022/09/28 01:39:53;;;;;;;11.25;7.15;;;;;;;;;;4976611;28;20118;-90
2022/09/28 01:42:21;;;;;;;10.00;7.22;;;;;;;;;;4975154;28;20495;-91
2022/09/28 01:44:49;;;;;;;9.95;7.10;;;;;;;;;;4977152;28;20042;-90
2022/09/28 01:47:16;;;;;;;10.07;6.97;;;;;;;;;;4974165;28;20181;-90
2022/09/28 01:49:51;;;;;;;9.40;6.88;;;;;;;;;;4978444;28;20058;-90
2022/09/28 01:52:20;;;;;;;10.63;7.47;;;;;;;;;;4975888;28;20523;-90
2022/09/28 01:54:51;;;;;;;10.43;7.05;;;;;;;;;;4976019;28;20108;-89
2022/09/28 01:57:23;;;;;;;13.57;8.15;;;;;;;;;;4979255;28;20066;-90
2022/09/28 01:59:59;;;;;;;10.88;7.90;;;;;;;;;;4986270;28;20053;-91
2022/09/28 02:02:28;;;;;;;14.73;6.40;;;;;;;;;;5027134;28;20205;-90
2022/09/28 02:04:57;;;;;;;126.35;7.25;;;;;;;;;;5020695;28;20060;-90
2022/09/28 02:07:26;;;;;;;18.67;5.85;;;;;;;;;;5017029;28;20034;-90
2022/09/28 02:09:57;;;;;;;22.58;6.03;;;;;;;;;;5018898;28;20412;-90
2022/09/28 02:12:30;;;;;;;22.98;7.32;;;;;;;;;;5017902;28;20050;-90
2022/09/28 02:15:01;;;;;;;81.72;9.20;;;;;;;;;;5014912;28;20041;-91
2022/09/28 02:17:27;;;;;;;66.53;7.23;;;;;;;;;;5046592;28;20042;-89
2022/09/28 02:19:53;;;;;;;93.82;7.13;;;;;;;;;;5012515;28;20304;-89
2022/09/28 02:22:30;;;;;;;63.40;6.72;;;;;;;;;;5013192;28;20099;-91
2022/09/28 02:24:58;;;;;;;58.05;6.10;;;;;;;;;;5011426;28;20049;-90
2022/09/28 02:27:34;;;;;;;61.85;6.07;;;;;;;;;;5012220;28;20042;-89
2022/09/28 02:30:00;;;;;;;109.22;6.55;;;;;;;;;;5015192;28;20388;-90
2022/09/28 02:32:28;;;;;;;103.13;6.30;;;;;;;;;;5013781;28;20050;-90
2022/09/28 02:34:55;;;;;;;85.45;6.60;;;;;;;;;;5004029;28;20041;-89
2022/09/28 02:37:21;;;;;;;61.33;5.78;;;;;;;;;;5011769;28;20038;-90
2022/09/28 02:39:47;;;;;;;97.38;5.90;;;;;;;;;;5012440;28;20042;-91
2022/09/28 02:42:32;;;;;;;67.82;5.50;;;;;;;;;;5006747;28;20404;-90
2022/09/28 02:45:16;;;;;;;72.90;5.82;;;;;;;;;;5007392;28;20504;-90
2022/09/28 02:47:49;;;;;;;59.42;5.10;;;;;;;;;;5003702;28;20046;-89
2022/09/28 02:50:26;;;;;;;49.22;4.68;;;;;;;;;;5010779;28;20081;-92
2022/09/28 02:52:55;;;;;;;54.42;5.07;;;;;;;;;;5046113;28;20049;-89
2022/09/28 02:55:40;;;;;;;92.18;5.68;;;;;;;;;;5012221;28;20038;-91
2022/09/28 02:58:12;;;;;;;71.43;4.93;;;;;;;;;;5012399;28;20045;-89
2022/09/28 03:00:44;;;;;;;51.97;4.57;;;;;;;;;;5003981;28;20121;-91
2022/09/28 03:03:13;;;;;;;18.35;4.50;;;;;;;;;;5011283;28;20120;-89
2022/09/28 03:05:51;;;;;;;26.13;5.32;;;;;;;;;;5010477;28;20034;-90
2022/09/28 03:08:27;;;;;;;33.58;4.88;;;;;;;;;;5012611;28;20069;-87
2022/09/28 03:10:56;;;;;;;23.02;4.60;;;;;;;;;;5005152;28;21476;-90
2022/09/28 03:13:22;;;;;;;15.35;5.53;;;;;;;;;;5006632;28;20125;-90
2022/09/28 03:15:48;;;;;;;9.82;5.15;;;;;;;;;;5006303;28;20042;-89
2022/09/28 03:18:14;;;;;;;8.65;4.50;;;;;;;;;;5004925;28;20045;-89
2022/09/28 03:20:40;;;;;;;7.60;4.57;;;;;;;;;;5011093;28;20512;-89
2022/09/28 03:23:06;;;;;;;7.18;5.03;;;;;;;;;;5012162;28;20056;-90
2022/09/28 03:25:32;;;;;;;9.68;4.88;;;;;;;;;;5013982;28;20438;-89
2022/09/28 03:27:58;;;;;;;24.45;5.40;;;;;;;;;;5047706;28;20042;-89
2022/09/28 03:30:24;;;;;;;42.20;6.43;;;;;;;;;;5014127;28;20048;-90
2022/09/28 03:33:01;;;;;;;17.58;5.45;;;;;;;;;;5004283;28;20041;-90
2022/09/28 03:35:27;;;;;;;24.58;5.28;;;;;;;;;;5009916;28;20061;-91
2022/09/28 03:37:56;;;;;;;77.13;7.57;;;;;;;;;;5013217;28;20046;-89
2022/09/28 03:40:22;;;;;;;75.90;8.00;;;;;;;;;;5010645;28;20049;-89
2022/09/28 03:42:48;;;;;;;79.75;8.18;;;;;;;;;;5014550;28;20108;-91
2022/09/28 03:45:14;;;;;;;66.72;7.70;;;;;;;;;;5011045;28;20041;-89
2022/09/28 03:47:44;;;;;;;48.88;7.85;;;;;;;;;;5013905;28;20065;-89
2022/09/28 03:50:10;;;;;;;66.05;6.88;;;;;;;;;;5014402;28;20042;-90
2022/09/28 03:52:36;;;;;;;59.38;6.65;;;;;;;;;;5014920;28;20096;-90
2022/09/28 03:55:03;;;;;;;48.83;6.85;;;;;;;;;;5012924;28;20411;-90
2022/09/28 03:57:29;;;;;;;72.22;7.65;;;;;;;;;;5014967;28;20373;-91
2022/09/28 03:59:54;;;;;;;44.78;7.93;;;;;;;;;;5011830;28;20494;-90
2022/09/28 04:02:20;;;;;;;29.88;5.88;;;;;;;;;;5015211;28;20125;-90
2022/09/28 04:04:46;;;;;;;67.53;6.93;;;;;;;;;;5022240;28;20125;-91
2022/09/28 04:07:12;;;;;;;41.22;6.07;;;;;;;;;;5024531;28;20115;-90
2022/09/28 04:09:38;;;;;;;22.67;4.38;;;;;;;;;;5000618;28;20053;-89
2022/09/28 04:12:05;;;;;;;51.17;5.65;;;;;;;;;;5008898;28;20038;-90
2022/09/28 04:14:34;;;;;;;59.88;7.20;;;;;;;;;;5013974;28;20050;-91
2022/09/28 04:17:00;;;;;;;73.70;7.05;;;;;;;;;;5012094;28;20121;-91
2022/09/28 04:19:27;;;;;;;74.40;7.13;;;;;;;;;;5015188;28;20452;-90
2022/09/28 04:21:53;;;;;;;66.85;8.02;;;;;;;;;;5013625;28;20049;-90
2022/09/28 04:24:19;;;;;;;41.92;7.32;;;;;;;;;;5012881;28;20042;-90
2022/09/28 04:26:45;;;;;;;63.80;9.07;;;;;;;;;;5014029;28;20052;-92
2022/09/28 04:29:14;;;;;;;62.95;9.23;;;;;;;;;;5011835;28;20053;-89
2022/09/28 04:31:50;;;;;;;129.15;12.43;;;;;;;;;;5034881;28;20038;-89
2022/09/28 04:34:17;;;;;;;109.07;11.05;;;;;;;;;;5015013;28;20122;-90
2022/09/28 04:36:44;;;;;;;123.43;10.82;;;;;;;;;;5012882;28;20542;-90
2022/09/28 04:39:11;;;;;;;99.30;11.65;;;;;;;;;;5051841;28;20041;-90
2022/09/28 04:41:37;;;;;;;76.65;10.32;;;;;;;;;;5016444;28;20041;-90
2022/09/28 04:44:03;;;;;;;100.78;12.45;;;;;;;;;;5010865;28;20053;-90
2022/09/28 04:46:29;;;;;;;71.65;10.65;;;;;;;;;;5012702;28;20104;-90
2022/09/28 04:48:58;;;;;;;139.55;13.25;;;;;;;;;;5001948;28;20096;-89
2022/09/28 04:51:24;;;;;;;121.90;13.50;;;;;;;;;;5010150;28;20053;-90
2022/09/28 04:53:50;;;;;;;148.43;14.07;;;;;;;;;;5010562;28;20099;-90
2022/09/28 04:56:17;;;;;;;179.05;17.05;;;;;;;;;;4995621;28;20089;-89
2022/09/28 04:58:43;;;;;;;218.40;18.30;;;;;;;;;;5046042;28;20068;-89
2022/09/28 05:01:11;;;;;;;136.07;15.20;;;;;;;;;;5010711;28;20485;-89
2022/09/28 05:03:37;;;;;;;232.50;19.08;;;;;;;;;;5009700;28;20104;-90
2022/09/28 05:06:03;;;;;;;168.82;17.48;;;;;;;;;;5009412;28;20045;-89
2022/09/28 05:08:29;;;;;;;156.27;15.27;;;;;;;;;;5009800;28;20096;-88
2022/09/28 05:11:00;;;;;;;166.60;16.88;;;;;;;;;;5011042;28;20052;-90
2022/09/28 05:13:26;;;;;;;185.50;16.10;;;;;;;;;;5012343;28;20122;-89
2022/09/28 05:15:53;;;;;;;130.00;13.60;;;;;;;;;;5011510;28;20175;-89
2022/09/28 05:18:20;;;;;;;134.48;14.70;;;;;;;;;;4997480;28;20049;-89
2022/09/28 05:20:46;;;;;;;87.32;14.50;;;;;;;;;;5014076;28;20052;-90
2022/09/28 05:23:14;;;;;;;172.20;19.85;;;;;;;;;;5010388;28;20526;-89
2022/09/28 05:25:40;;;;;;;82.05;13.82;;;;;;;;;;5012725;28;20049;-89
2022/09/28 05:28:06;;;;;;;102.38;14.77;;;;;;;;;;5008682;28;20484;-89
2022/09/28 05:30:35;;;;;;;191.32;19.30;;;;;;;;;;5011619;28;20053;-88
2022/09/28 05:33:02;;;;;;;118.28;16.23;;;;;;;;;;5009098;28;20041;-89
2022/09/28 05:35:28;;;;;;;90.90;15.80;;;;;;;;;;5011689;28;20054;-90
2022/09/28 05:37:54;;;;;;;62.20;14.05;;;;;;;;;;5011058;28;20046;-89
2022/09/28 05:40:21;;;;;;;99.40;15.73;;;;;;;;;;5013289;28;20048;-89
2022/09/28 05:42:47;;;;;;;94.45;15.77;;;;;;;;;;5009297;28;20042;-88
2022/09/28 05:45:13;;;;;;;56.10;13.77;;;;;;;;;;5012111;28;20048;-90
2022/09/28 05:47:39;;;;;;;127.40;17.38;;;;;;;;;;5009166;28;20125;-89
2022/09/28 05:50:07;;;;;;;87.43;15.85;;;;;;;;;;5013145;28;20109;-90
2022/09/28 05:52:33;;;;;;;117.28;16.80;;;;;;;;;;5010559;28;20054;-89
2022/09/28 05:54:59;;;;;;;83.38;16.15;;;;;;;;;;5013057;28;20124;-89
2022/09/28 05:57:25;;;;;;;138.02;17.38;;;;;;;;;;5002220;28;20046;-89
2022/09/28 05:59:51;;;;;;;42.78;14.50;;;;;;;;;;5039603;28;20507;-89
2022/09/28 06:02:17;;;;;;;102.40;17.50;;;;;;;;;;5010097;28;20057;-90
2022/09/28 06:04:43;;;;;;;289.20;25.90;;;;;;;;;;5016028;28;20042;-91
2022/09/28 06:07:09;;;;;;;134.60;19.98;;;;;;;;;;5017650;28;20042;-90
2022/09/28 06:09:35;;;;;;;50.72;15.77;;;;;;;;;;5044465;28;20060;-89
2022/09/28 06:12:01;;;;;;;175.52;20.60;;;;;;;;;;5012628;28;20117;-90
2022/09/28 06:14:27;;;;;;;65.63;17.45;;;;;;;;;;5004996;28;20552;-89
2022/09/28 06:16:53;;;;;;;135.75;17.77;;;;;;;;;;5006111;28;20126;-90
2022/09/28 06:19:19;;;;;;;189.55;18.77;;;;;;;;;;5005258;28;20121;-90
2022/09/28 06:21:46;;;;;;;138.68;17.75;;;;;;;;;;5002369;28;20129;-90
2022/09/28 06:24:12;;;;;;;87.10;16.13;;;;;;;;;;5011818;28;20046;-89
2022/09/28 06:26:39;;;;;;;151.93;18.85;;;;;;;;;;5010310;28;20052;-91
2022/09/28 06:29:05;;;;;;;46.95;15.55;;;;;;;;;;5009386;28;20042;-89
2022/09/28 06:31:34;;;;;;;138.85;17.75;;;;;;;;;;5029027;28;20046;-88
2022/09/28 06:34:00;;;;;;;296.30;23.05;;;;;;;;;;5021257;28;20046;-90
2022/09/28 06:36:28;;;;;;;158.40;16.77;;;;;;;;;;5013178;28;20042;-90
2022/09/28 06:38:54;;;;;;;112.13;15.77;;;;;;;;;;5014101;28;20045;-89
2022/09/28 06:41:21;;;;;;;153.60;17.20;;;;;;;;;;5011293;28;20038;-88
2022/09/28 06:43:48;;;;;;;191.02;19.50;;;;;;;;;;5014396;28;20037;-89
2022/09/28 06:46:14;;;;;;;47.00;13.90;;;;;;;;;;5008447;28;20124;-88
2022/09/28 06:48:40;;;;;;;191.07;20.23;;;;;;;;;;5009316;28;20407;-88
2022/09/28 06:51:06;;;;;;;359.58;26.15;;;;;;;;;;5012283;28;20056;-89
2022/09/28 06:53:32;;;;;;;100.15;15.80;;;;;;;;;;5013155;28;20411;-88
2022/09/28 06:55:59;;;;;;;177.93;19.70;;;;;;;;;;5014830;28;20100;-88
2022/09/28 06:58:27;;;;;;;99.07;14.88;;;;;;;;;;5014556;28;20130;-89
2022/09/28 07:00:58;;;;;;;151.25;15.73;;;;;;;;;;5012994;28;20057;-89
2022/09/28 07:03:24;;;;;;;223.07;17.73;;;;;;;;;;5016230;28;20064;-90
2022/09/28 07:05:52;;;;;;;193.05;17.20;;;;;;;;;;5015884;28;20183;-89
2022/09/28 07:08:19;;;;;;;241.52;19.88;;;;;;;;;;5048613;28;20046;-89
2022/09/28 07:10:47;;;;;;;86.78;17.33;;;;;;;;;;5017061;28;20126;-88
2022/09/28 07:13:13;;;;;;;104.35;16.90;;;;;;;;;;5018240;28;20045;-88
2022/09/28 07:15:40;;;;;;;81.97;15.18;;;;;;;;;;5017439;28;20061;-88
2022/09/28 07:18:06;;;;;;;157.77;16.75;;;;;;;;;;5024167;28;20125;-89
2022/09/28 07:20:34;;;;;;;157.02;17.92;;;;;;;;;;5039299;28;20049;-88
2022/09/28 07:23:01;;;;;;;113.05;16.30;;;;;;;;;;5047312;28;20121;-90
2022/09/28 07:25:31;;;;;;;43.85;13.45;;;;;;;;;;5015523;28;20501;-88
2022/09/28 07:27:58;;;;;;;95.03;14.40;;;;;;;;;;5017768;28;20493;-89
2022/09/28 07:30:26;;;;;;;117.47;14.55;;;;;;;;;;5048510;28;20065;-89
2022/09/28 07:32:52;;;;;;;137.60;15.52;;;;;;;;;;5021750;28;20050;-89
2022/09/28 07:35:18;;;;;;;63.13;13.05;;;;;;;;;;5016979;28;20046;-89
2022/09/28 07:37:44;;;;;;;130.20;14.05;;;;;;;;;;5019739;28;20045;-88
2022/09/28 07:42:55;;;;;;;293.08;18.95;;;;;;;;;;5014053;28;20046;-89
2022/09/28 07:45:23;;;;;;;97.95;12.93;;;;;;;;;;5016195;28;20069;-89
2022/09/28 07:47:50;;;;;;;105.63;15.82;;;;;;;;;;5016861;28;20484;-89
2022/09/28 07:50:16;;;;;;;107.22;14.00;;;;;;;;;;5018908;28;20038;-89
2022/09/28 07:52:44;;;;;;;119.47;13.02;;;;;;;;;;5018072;28;20107;-89
2022/09/28 07:55:10;;;;;;;316.42;19.33;;;;;;;;;;5018372;28;20077;-90
2022/09/28 07:57:36;;;;;;;104.85;12.80;;;;;;;;;;5008095;28;20049;-89
2022/09/28 08:00:04;;;;;;;80.30;12.70;;;;;;;;;;5017945;28;20037;-88
2022/09/28 08:02:32;;;;;;;51.67;12.50;;;;;;;;;;5009157;28;20046;-91
2022/09/28 08:04:58;;;;;;;98.45;11.98;;;;;;;;;;5016864;28;20038;-91
2022/09/28 08:07:24;;;;;;;47.30;10.88;;;;;;;;;;5024087;28;20116;-90
2022/09/28 08:09:50;;;;;;;37.60;11.48;;;;;;;;;;5030785;28;20093;-91
2022/09/28 08:12:18;;;;;;;25.05;10.02;;;;;;;;;;5054798;28;20053;-90
2022/09/28 08:14:44;;;;;;;22.40;11.85;;;;;;;;;;5016330;28;20070;-90
2022/09/28 08:17:11;;;;;;;18.20;10.00;;;;;;;;;;5013859;28;20404;-91
2022/09/28 08:22:21;;;;;;;43.33;11.70;;;;;;;;;;5014771;28;20045;-87
2022/09/28 08:24:48;;;;;;;17.75;11.63;;;;;;;;;;5019635;28;20068;-90
2022/09/28 08:27:15;;;;;;;19.38;11.68;;;;;;;;;;5018250;28;20125;-91
2022/09/28 08:29:42;;;;;;;22.63;11.93;;;;;;;;;;5017579;28;20445;-90
2022/09/28 08:32:08;;;;;;;26.52;11.90;;;;;;;;;;5013830;28;20044;-91
2022/09/28 08:34:38;;;;;;;23.67;12.10;;;;;;;;;;5018857;28;20434;-89
2022/09/28 08:37:05;;;;;;;24.08;13.25;;;;;;;;;;5019852;28;20042;-90
2022/09/28 08:39:33;;;;;;;14.65;10.15;;;;;;;;;;5028243;28;20037;-90
2022/09/28 08:42:16;;;;;;;14.68;11.07;;;;;;;;;;5026879;28;20386;-89
2022/09/28 08:44:43;;;;;;;13.10;10.40;;;;;;;;;;5014130;28;20507;-90
2022/09/28 08:48:42;;;;;;;14.00;10.45;;;;;;;;;;5021149;28;20137;-91
2022/09/28 08:50:01;;;;;;;12.20;9.68;;;;;;;;;;5009887;28;20060;-88
2022/09/28 08:52:29;;;;;;;12.35;9.48;;;;;;;;;;5029126;28;20061;-88
2022/09/28 08:55:02;;;;;;;13.95;9.98;;;;;;;;;;5012784;28;20502;-89
2022/09/28 08:57:37;;;;;;;11.52;8.77;;;;;;;;;;5006578;28;20045;-89
2022/09/28 09:00:04;;;;;;;12.15;9.38;;;;;;;;;;4998615;28;20042;-88
2022/09/28 09:02:35;;;;;;;10.00;7.80;;;;;;;;;;5012341;28;20463;-89
2022/09/28 09:05:03;;;;;;;11.57;8.53;;;;;;;;;;5006214;28;20041;-90
2022/09/28 09:07:45;;;;;;;11.45;8.30;;;;;;;;;;5015389;28;20038;-89
2022/09/28 09:10:25;;;;;;;8.95;6.82;;;;;;;;;;5013244;28;20050;-89
2022/09/28 09:12:51;;;;;;;10.05;7.20;;;;;;;;;;5015939;28;20057;-89
2022/09/28 09:15:32;;;;;;;10.40;7.70;;;;;;;;;;5010210;28;20041;-89
2022/09/28 09:17:58;;;;;;;10.20;7.57;;;;;;;;;;4997397;28;20046;-90
2022/09/28 09:20:40;;;;;;;9.55;7.40;;;;;;;;;;5022974;28;20521;-88
2022/09/28 09:23:16;;;;;;;11.23;8.35;;;;;;;;;;5012689;28;20042;-88
2022/09/28 09:25:53;;;;;;;8.85;6.93;;;;;;;;;;4997793;28;20053;-89
2022/09/28 09:28:43;;;;;;;8.90;6.78;;;;;;;;;;5011387;28;20492;-88
2022/09/28 09:31:18;;;;;;;9.32;6.45;;;;;;;;;;5013560;28;20137;-89
2022/09/28 09:34:20;;;;;;;7.93;5.90;;;;;;;;;;5013187;28;20052;-88
2022/09/28 09:37:09;;;;;;;7.88;5.90;;;;;;;;;;4971600;28;20122;-88
2022/09/28 09:39:35;;;;;;;7.82;5.53;;;;;;;;;;4955052;28;20540;-88
2022/09/28 09:42:04;;;;;;;6.82;5.03;;;;;;;;;;4971884;28;20123;-88
2022/09/28 09:44:51;;;;;;;7.63;4.78;;;;;;;;;;4971772;28;20105;-89
2022/09/28 09:47:23;;;;;;;8.73;5.20;;;;;;;;;;4971861;28;20058;-90
2022/09/28 09:49:49;;;;;;;;;;;;;;;;;;4972971;28;20078;-89
2022/09/28 09:52:43;;;;;;;7.30;4.25;;;;;;;;;;4975037;28;19922;-88
2022/09/28 09:55:09;;;;;;;6.85;4.53;;;;;;;;;;4980877;28;20069;-87
2022/09/28 09:57:40;;;;;;;7.60;4.68;;;;;;;;;;4991415;28;20047;-87
2022/09/28 10:00:12;;;;;;;6.55;4.20;;;;;;;;;;4982951;28;20085;-87
2022/09/28 10:02:38;;;;;;;8.57;4.95;;;;;;;;;;4971631;28;20378;-88
2022/09/28 10:05:10;;;;;;;5.93;3.78;;;;;;;;;;4965873;28;20047;-87
2022/09/28 10:07:40;;;;;;;5.65;3.70;;;;;;;;;;4964949;28;20082;-86
2022/09/28 10:10:11;;;;;;;6.32;3.92;;;;;;;;;;4980451;28;20076;-87
2022/09/28 10:12:37;;;;;;;;;;;;;;;;;;5016456;28;20125;-88
2022/09/28 10:15:06;;;;;;;5.50;3.78;;;;;;;;;;4998181;28;20288;-87
2022/09/28 10:17:33;;;;;;;5.40;3.47;;;;;;;;;;5008748;28;20503;-87
2022/09/28 10:19:59;;;;;;;5.50;3.40;;;;;;;;;;5008950;28;20046;-88
2022/09/28 10:22:26;;;;;;;6.55;3.10;;;;;;;;;;5005590;28;20563;-86
2022/09/28 10:24:57;;;;;;;6.75;3.90;;;;;;;;;;5023616;28;20053;-86
2022/09/28 10:27:25;;;;;;;5.90;3.88;;;;;;;;;;5009610;28;20100;-85
2022/09/28 10:29:59;;;;;;;5.80;3.92;;;;;;;;;;5009904;28;20049;-84
2022/09/28 10:32:27;;;;;;;5.93;3.80;;;;;;;;;;5008992;28;20037;-86
2022/09/28 10:34:54;;;;;;;8.07;4.05;;;;;;;;;;5045149;28;20042;-85
2022/09/28 10:37:20;;;;;;;7.57;4.38;;;;;;;;;;5011903;28;20179;-85
2022/09/28 10:39:49;;;;;;;8.02;4.93;;;;;;;;;;5012327;28;20049;-86
2022/09/28 10:42:21;;;;;;;6.85;4.68;;;;;;;;;;5017314;28;20105;-86
2022/09/28 10:44:47;;;;;;;;;;;;;;;;;;5019862;28;20048;-85
2022/09/28 10:47:16;;;;;;;6.20;4.20;;;;;;;;;;5013602;28;19925;-86
2022/09/28 10:49:44;;;;;;;7.63;4.50;;;;;;;;;;5002174;28;20128;-86
2022/09/28 10:52:29;;;;;;;6.40;4.10;;;;;;;;;;5006484;28;20203;-86
2022/09/28 10:54:55;;;;;;;7.40;4.80;;;;;;;;;;5013304;28;20050;-86
2022/09/28 10:57:34;;;;;;;7.32;5.22;;;;;;;;;;5014295;28;20034;-86
2022/09/28 11:00:01;;;;;;;7.32;4.13;;;;;;;;;;5011526;28;20117;-87
2022/09/28 11:02:30;;;;;;;6.63;4.45;;;;;;;;;;5015893;28;20131;-85
2022/09/28 11:05:00;;;;;;;8.52;4.20;;;;;;;;;;5011962;28;20100;-84
2022/09/28 11:07:29;;;;;;;7.63;4.75;;;;;;;;;;5015628;28;20046;-86
2022/09/28 11:09:57;;;;;;;7.32;4.50;;;;;;;;;;5015118;28;20057;-87
2022/09/28 11:12:29;;;;;;;6.65;4.55;;;;;;;;;;5004858;28;20113;-85
2022/09/28 11:14:57;;;;;;;8.10;5.00;;;;;;;;;;5002701;28;20069;-85
2022/09/28 11:17:38;;;;;;;7.10;4.70;;;;;;;;;;5014454;28;20100;-86
2022/09/28 11:20:23;;;;;;;6.05;3.80;;;;;;;;;;5020199;28;20514;-85
2022/09/28 11:22:56;;;;;;;7.88;4.15;;;;;;;;;;5015181;28;20057;-84
2022/09/28 11:25:24;;;;;;;6.68;3.95;;;;;;;;;;5010673;28;20046;-86
2022/09/28 11:27:50;;;;;;;6.40;3.55;;;;;;;;;;5015217;28;20065;-85
2022/09/28 11:30:31;;;;;;;6.13;3.70;;;;;;;;;;5011996;28;20392;-85
2022/09/28 11:32:57;;;;;;;;;;;;;;;;;;5014261;28;20049;-84
2022/09/28 11:35:27;;;;;;;6.60;3.92;;;;;;;;;;5016491;28;20298;-85
2022/09/28 11:37:59;;;;;;;5.57;3.28;;;;;;;;;;5027362;28;20052;-84
2022/09/28 11:40:44;;;;;;;5.47;3.20;;;;;;;;;;5014284;28;20042;-85
2022/09/28 11:43:20;;;;;;;6.28;3.40;;;;;;;;;;5014211;28;20222;-85
2022/09/28 11:45:53;;;;;;;6.10;3.20;;;;;;;;;;5013046;28;20492;-85
2022/09/28 11:48:23;;;;;;;5.97;3.60;;;;;;;;;;5014407;28;20096;-85
2022/09/28 11:51:01;;;;;;;5.10;3.20;;;;;;;;;;5014116;28;20050;-85
2022/09/28 11:53:35;;;;;;;6.18;3.40;;;;;;;;;;5015784;28;20041;-85
2022/09/28 11:56:18;;;;;;;6.13;3.38;;;;;;;;;;5014159;28;20052;-85
2022/09/28 11:58:50;;;;;;;6.80;3.30;;;;;;;;;;5013569;28;20054;-84
2022/09/28 12:01:16;;;;;;;6.70;3.63;;;;;;;;;;5004551;28;20050;-86
2022/09/28 12:03:45;;;;;;;5.95;3.22;;;;;;;;;;4998494;28;20042;-85
2022/09/28 12:06:14;;;;;;;6.40;3.35;;;;;;;;;;5008218;28;20161;-85
2022/09/28 12:08:43;;;;;;;6.20;3.70;;;;;;;;;;5014353;28;20049;-83
2022/09/28 12:11:15;;;;;;;7.15;3.67;;;;;;;;;;5019535;28;20046;-84
2022/09/28 12:13:43;;;;;;;6.03;3.42;;;;;;;;;;5011925;28;20472;-86
2022/09/28 12:16:14;;;;;;;7.18;4.38;;;;;;;;;;5013280;28;20042;-84
2022/09/28 12:18:40;;;;;;;;;;;;;;;;;;5015132;28;20045;-86
2022/09/28 12:21:10;;;;;;;7.03;3.42;;;;;;;;;;5027606;28;20268;-85
2022/09/28 12:23:37;;;;;;;7.25;3.70;;;;;;;;;;5013071;28;20041;-84
2022/09/28 12:26:23;;;;;;;6.60;3.70;;;;;;;;;;5009046;28;20075;-86
2022/09/28 12:28:50;;;;;;;6.20;3.97;;;;;;;;;;5011361;28;20038;-85
2022/09/28 12:31:19;;;;;;;5.90;3.33;;;;;;;;;;5014740;28;20037;-84
2022/09/28 12:33:47;;;;;;;7.43;3.97;;;;;;;;;;5011935;28;20049;-84
2022/09/28 12:36:32;;;;;;;6.55;4.40;;;;;;;;;;5012740;28;20046;-84
2022/09/28 12:39:04;;;;;;;6.60;4.43;;;;;;;;;;5012719;28;20045;-85
2022/09/28 12:41:33;;;;;;;7.35;4.20;;;;;;;;;;5012587;28;20590;-84
2022/09/28 12:44:08;;;;;;;6.20;4.00;;;;;;;;;;5013905;28;20081;-84
2022/09/28 12:46:53;;;;;;;6.70;3.80;;;;;;;;;;5010660;28;20046;-84
2022/09/28 12:49:34;;;;;;;7.72;4.00;;;;;;;;;;5009520;28;20373;-87
2022/09/28 12:52:23;;;;;;;6.70;4.05;;;;;;;;;;5013913;28;20046;-85
2022/09/28 12:55:02;;;;;;;8.18;4.38;;;;;;;;;;5026842;28;20054;-84
2022/09/28 12:57:49;;;;;;;8.57;4.38;;;;;;;;;;5067264;28;20045;-84
2022/09/28 13:00:25;;;;;;;7.47;4.03;;;;;;;;;;5007579;28;20038;-84
2022/09/28 13:03:21;;;;;;;8.20;4.15;;;;;;;;;;4994513;28;20132;-83
2022/09/28 13:05:50;;;;;;;7.63;4.57;;;;;;;;;;4994723;28;20434;-84
2022/09/28 13:08:35;;;;;;;8.05;4.32;;;;;;;;;;5003908;28;20054;-84
2022/09/28 13:11:19;;;;;;;7.20;4.50;;;;;;;;;;5009588;28;20121;-84
2022/09/28 13:13:58;;;;;;;6.30;4.13;;;;;;;;;;5006902;28;20118;-85
2022/09/28 13:16:30;;;;;;;8.20;4.18;;;;;;;;;;5044634;28;20164;-84
2022/09/28 13:19:02;;;;;;;7.03;3.70;;;;;;;;;;5012897;28;20462;-83
2022/09/28 13:21:39;;;;;;;6.60;3.53;;;;;;;;;;5014009;28;20038;-84
2022/09/28 13:24:08;;;;;;;6.78;3.67;;;;;;;;;;5013263;28;20049;-85
2022/09/28 13:26:36;;;;;;;7.65;4.13;;;;;;;;;;5012433;28;20042;-85
2022/09/28 13:29:23;;;;;;;7.75;3.53;;;;;;;;;;5012208;28;20049;-85
2022/09/28 13:31:57;;;;;;;5.68;3.22;;;;;;;;;;5013816;28;20081;-84
2022/09/28 13:34:32;;;;;;;5.90;3.38;;;;;;;;;;5012536;28;20142;-81
2022/09/28 13:37:27;;;;;;;6.10;3.58;;;;;;;;;;5031259;28;20053;-81
2022/09/28 13:40:04;;;;;;;7.00;3.70;;;;;;;;;;5001756;28;20065;-81
2022/09/28 13:42:50;;;;;;;13.20;5.10;;;;;;;;;;5012910;28;20044;-82
2022/09/28 13:45:23;;;;;;;8.43;3.50;;;;;;;;;;5019664;28;20116;-82
2022/09/28 13:47:55;;;;;;;16.25;3.42;;;;;;;;;;5013288;28;20049;-80
2022/09/28 13:50:36;;;;;;;6.72;3.10;;;;;;;;;;5011527;28;20050;-81
2022/09/28 13:53:22;;;;;;;7.28;2.83;;;;;;;;;;5016519;28;20046;-82
2022/09/28 13:55:59;;;;;;;10.60;3.10;;;;;;;;;;5009922;28;20105;-81
2022/09/28 13:58:25;;;;;;;11.48;3.70;;;;;;;;;;5009001;28;20046;-83
2022/09/28 14:01:01;;;;;;;8.90;4.20;;;;;;;;;;5010005;28;20038;-84
2022/09/28 14:03:48;;;;;;;8.98;4.15;;;;;;;;;;5003224;28;20052;-85
2022/09/28 14:06:27;;;;;;;6.63;2.95;;;;;;;;;;4986983;28;20084;-84
2022/09/28 14:09:07;;;;;;;6.35;3.17;;;;;;;;;;5008654;28;20060;-84
2022/09/28 14:11:36;;;;;;;13.13;9.75;;;;;;;;;;5043438;28;20061;-84
2022/09/28 14:14:22;;;;;;;26.90;24.00;;;;;;;;;;5008069;28;20045;-85
2022/09/28 14:16:51;;;;;;;11.35;9.48;;;;;;;;;;5011165;28;20408;-84
2022/09/28 14:19:20;;;;;;;8.55;4.00;;;;;;;;;;4999377;28;20078;-83
2022/09/28 14:21:52;;;;;;;5.90;3.53;;;;;;;;;;4994079;28;20050;-85
2022/09/28 14:24:26;;;;;;;6.47;3.60;;;;;;;;;;5011953;28;20048;-84
2022/09/28 14:26:58;;;;;;;6.00;3.25;;;;;;;;;;5023716;28;20037;-84
2022/09/28 14:29:28;;;;;;;8.32;3.70;;;;;;;;;;5011355;28;20276;-84
2022/09/28 14:32:05;;;;;;;6.85;3.13;;;;;;;;;;5011880;28;20049;-85
2022/09/28 14:34:33;;;;;;;5.80;2.92;;;;;;;;;;5011612;28;20041;-85
2022/09/28 14:42:30;;;;;;;10.15;3.00;;;;;;;;;;5014007;28;20549;-84
2022/09/28 14:45:02;;;;;;;5.75;2.17;;;;;;;;;;5010957;28;20038;-86
2022/09/28 14:47:40;;;;;;;5.05;1.92;;;;;;;;;;5011575;28;20172;-84
2022/09/28 14:50:24;;;;;;;2.38;0.98;;;;;;;;;;5011610;28;20551;-85
2022/09/28 14:52:52;;;;;;;3.22;1.00;;;;;;;;;;5012550;28;20523;-85
2022/09/28 14:55:22;;;;;;;4.82;1.55;;;;;;;;;;5012690;28;20046;-86
2022/09/28 14:57:52;;;;;;;6.65;2.80;;;;;;;;;;5006514;28;20439;-85
2022/09/28 15:00:21;;;;;;;4.57;1.90;;;;;;;;;;5052798;28;20147;-85